createdAt,value
2023-01-19T00:00:44.470Z,99609.34
2023-01-19T00:02:48.226Z,99618.88
2023-01-19T00:04:51.809Z,99614.44
2023-01-19T00:06:55.118Z,99618.97
2023-01-19T00:08:58.448Z,99621.78
2023-01-19T00:11:02.041Z,99620.16
2023-01-19T00:13:06.720Z,99608.25
2023-01-19T00:15:11.042Z,99611.03
2023-01-19T00:17:14.647Z,99617.28
2023-01-19T00:19:18.045Z,99579.00
2023-01-19T00:21:22.592Z,99619.09
2023-01-19T00:23:25.978Z,99616.53
2023-01-19T00:25:29.564Z,99625.25
2023-01-19T00:27:35.002Z,99618.84
2023-01-19T00:29:39.693Z,99615.25
2023-01-19T00:31:43.169Z,99616.41
2023-01-19T00:33:48.801Z,99621.03
2023-01-19T00:35:52.609Z,99626.09
2023-01-19T00:37:57.097Z,99610.47
2023-01-19T00:40:00.442Z,99616.00
2023-01-19T00:42:21.446Z,99610.50
2023-01-19T00:44:24.819Z,99621.28
2023-01-19T00:46:29.494Z,99614.28
2023-01-19T00:48:32.817Z,99620.44
2023-01-19T00:50:36.458Z,99624.81
2023-01-19T00:52:40.481Z,99617.28
2023-01-19T00:54:43.839Z,99623.69
2023-01-19T00:56:47.277Z,99610.19
2023-01-19T00:58:50.913Z,99619.38
2023-01-19T01:00:57.435Z,99624.28
2023-01-19T01:03:02.643Z,99623.13
2023-01-19T01:05:06.976Z,99616.53
2023-01-19T01:07:10.322Z,99610.50
2023-01-19T01:09:13.812Z,99610.38
2023-01-19T01:11:17.198Z,99606.09
2023-01-19T01:13:23.636Z,99609.44
2023-01-19T01:15:29.868Z,99612.06
2023-01-19T01:17:33.235Z,99604.34
2023-01-19T01:19:38.420Z,99578.63
2023-01-19T01:21:41.855Z,99612.78
2023-01-19T01:23:45.217Z,99623.06
2023-01-19T01:25:48.515Z,99625.94
2023-01-19T01:27:52.067Z,99634.66
2023-01-19T01:29:55.407Z,99643.44
2023-01-19T01:31:58.761Z,99636.72
2023-01-19T01:34:02.446Z,99637.59
2023-01-19T01:36:09.029Z,99636.81
2023-01-19T01:38:12.787Z,99634.75
2023-01-19T01:40:18.690Z,99639.25
2023-01-19T01:42:27.760Z,99644.44
2023-01-19T01:44:50.457Z,99642.88
2023-01-19T01:46:54.111Z,99642.25
2023-01-19T01:49:05.522Z,99638.50
2023-01-19T01:51:27.324Z,99649.16
2023-01-19T01:53:33.525Z,99642.38
2023-01-19T01:55:39.027Z,99634.84
2023-01-19T01:57:46.525Z,99643.41
2023-01-19T01:59:51.560Z,99644.56
2023-01-19T02:02:14.520Z,99642.72
2023-01-19T02:04:19.910Z,99636.59
2023-01-19T02:06:25.111Z,99621.03
2023-01-19T02:08:52.966Z,99631.81
2023-01-19T02:11:14.500Z,99631.16
2023-01-19T02:13:21.454Z,99632.13
2023-01-19T02:15:24.698Z,99629.50
2023-01-19T02:17:28.218Z,99630.72
2023-01-19T02:19:40.393Z,99626.56
2023-01-19T02:21:53.447Z,99621.28
2023-01-19T02:24:00.342Z,99617.53
2023-01-19T02:26:04.702Z,99633.09
2023-01-19T02:28:08.428Z,99617.41
2023-01-19T02:30:12.711Z,99627.31
2023-01-19T02:32:16.110Z,99629.09
2023-01-19T02:34:22.649Z,99628.88
2023-01-19T02:36:29.347Z,99628.56
2023-01-19T02:38:35.063Z,99633.16
2023-01-19T02:40:42.795Z,99635.03
2023-01-19T02:42:49.360Z,99636.81
2023-01-19T02:44:55.729Z,99635.00
2023-01-19T02:46:59.081Z,99610.44
2023-01-19T02:49:02.675Z,99629.63
2023-01-19T02:51:15.506Z,99630.78
2023-01-19T02:53:48.591Z,99633.31
2023-01-19T02:55:58.113Z,99620.47
2023-01-19T02:58:08.392Z,99628.31
2023-01-19T03:00:23.283Z,99623.56
2023-01-19T03:02:34.614Z,99628.44
2023-01-19T03:04:51.611Z,99626.75
2023-01-19T03:07:03.697Z,99622.44
2023-01-19T03:09:15.471Z,99626.94
2023-01-19T03:11:20.629Z,99637.22
2023-01-19T03:13:31.878Z,99623.78
2023-01-19T03:15:41.851Z,99631.69
2023-01-19T03:17:49.696Z,99612.84
2023-01-19T03:19:55.059Z,99617.22
2023-01-19T03:22:00.989Z,99627.75
2023-01-19T03:24:07.752Z,99623.50
2023-01-19T03:26:15.896Z,99627.28
2023-01-19T03:28:21.867Z,99624.16
2023-01-19T03:30:28.862Z,99624.28
2023-01-19T03:32:37.199Z,99625.22
2023-01-19T03:34:42.955Z,99609.38
2023-01-19T03:36:51.696Z,99586.63
2023-01-19T03:38:58.846Z,99618.53
2023-01-19T03:41:06.769Z,99625.31
2023-01-19T03:43:10.776Z,99628.66
2023-01-19T03:45:16.258Z,99624.69
2023-01-19T03:47:21.030Z,99626.63
2023-01-19T03:49:24.776Z,99629.56
2023-01-19T03:51:28.459Z,99624.16
2023-01-19T03:53:31.738Z,99638.03
2023-01-19T03:55:35.893Z,99629.22
2023-01-19T03:57:39.324Z,99625.97
2023-01-19T03:59:42.656Z,99631.09
2023-01-19T04:01:47.615Z,99623.72
2023-01-19T04:03:51.111Z,99629.00
2023-01-19T04:05:54.539Z,99649.56
2023-01-19T04:07:58.002Z,99620.66
2023-01-19T04:10:01.337Z,99625.91
2023-01-19T04:12:05.551Z,99627.31
2023-01-19T04:14:08.906Z,99634.03
2023-01-19T04:16:12.594Z,99630.06
2023-01-19T04:18:17.329Z,99629.00
2023-01-19T04:20:21.680Z,99631.91
2023-01-19T04:22:25.322Z,99639.50
2023-01-19T04:24:28.678Z,99624.56
2023-01-19T04:26:31.946Z,99635.06
2023-01-19T04:28:36.980Z,99642.50
2023-01-19T04:30:40.348Z,99641.00
2023-01-19T04:32:44.191Z,99636.25
2023-01-19T04:34:49.096Z,99638.75
2023-01-19T04:36:52.408Z,99638.03
2023-01-19T04:38:55.749Z,99637.38
2023-01-19T04:40:59.056Z,99636.75
2023-01-19T04:43:02.644Z,99634.47
2023-01-19T04:45:06.887Z,99637.72
2023-01-19T04:47:10.282Z,99637.88
2023-01-19T04:49:13.960Z,99638.44
2023-01-19T04:51:18.682Z,99635.94
2023-01-19T04:53:21.960Z,99636.75
2023-01-19T04:55:25.864Z,99645.66
2023-01-19T04:57:30.042Z,99632.53
2023-01-19T04:59:33.542Z,99629.94
2023-01-19T05:01:36.986Z,99629.41
2023-01-19T05:03:40.868Z,99635.94
2023-01-19T05:05:44.200Z,99639.38
2023-01-19T05:07:48.883Z,99641.34
2023-01-19T05:09:52.284Z,99641.22
2023-01-19T05:11:55.563Z,99637.28
2023-01-19T05:13:58.914Z,99634.44
2023-01-19T05:16:02.431Z,99649.00
2023-01-19T05:18:05.867Z,99636.88
2023-01-19T05:20:12.244Z,99634.16
2023-01-19T05:22:17.277Z,99634.84
2023-01-19T05:24:21.985Z,99645.59
2023-01-19T05:26:25.420Z,99641.28
2023-01-19T05:28:28.864Z,99643.22
2023-01-19T05:30:32.352Z,99647.03
2023-01-19T05:32:35.700Z,99648.66
2023-01-19T05:34:39.064Z,99645.13
2023-01-19T05:36:42.472Z,99652.97
2023-01-19T05:38:46.029Z,99650.72
2023-01-19T05:40:51.016Z,99654.50
2023-01-19T05:42:54.346Z,99647.91
2023-01-19T05:44:59.430Z,99653.78
2023-01-19T05:47:02.767Z,99653.47
2023-01-19T05:49:07.341Z,99661.25
2023-01-19T05:51:11.065Z,99653.94
2023-01-19T05:53:14.545Z,99658.47
2023-01-19T05:55:18.066Z,99656.88
2023-01-19T05:57:23.015Z,99658.41
2023-01-19T05:59:26.323Z,99653.28
2023-01-19T06:01:29.657Z,99661.66
2023-01-19T06:03:33.162Z,99653.78
2023-01-19T06:05:38.393Z,99630.03
2023-01-19T06:07:41.860Z,99662.09
2023-01-19T06:09:45.142Z,99653.06
2023-01-19T06:11:48.607Z,99654.03
2023-01-19T06:13:53.587Z,99651.53
2023-01-19T06:16:00.180Z,99660.13
2023-01-19T06:18:03.584Z,99656.69
2023-01-19T06:20:08.128Z,99620.22
2023-01-19T06:22:11.439Z,99657.81
2023-01-19T06:24:14.916Z,99660.09
2023-01-19T06:26:18.244Z,99667.28
2023-01-19T06:28:21.584Z,99672.66
2023-01-19T06:30:26.998Z,99672.00
2023-01-19T06:32:30.947Z,99669.72
2023-01-19T06:34:34.336Z,99684.56
2023-01-19T06:36:38.436Z,99683.34
2023-01-19T06:38:41.844Z,99690.47
2023-01-19T06:40:45.778Z,99633.38
2023-01-19T06:42:50.120Z,99664.31
2023-01-19T06:44:53.400Z,99688.84
2023-01-19T06:47:15.655Z,99708.56
2023-01-19T06:49:19.556Z,99696.75
2023-01-19T06:51:23.016Z,99707.41
2023-01-19T06:53:27.962Z,99700.44
2023-01-19T06:55:31.312Z,99700.66
2023-01-19T06:57:34.714Z,99704.41
2023-01-19T06:59:38.059Z,99705.81
2023-01-19T07:01:41.516Z,99703.75
2023-01-19T07:03:47.048Z,99699.75
2023-01-19T07:05:52.675Z,99705.47
2023-01-19T07:07:57.127Z,99716.22
2023-01-19T07:10:00.502Z,99720.69
2023-01-19T07:12:03.913Z,99716.72
2023-01-19T07:14:07.185Z,99722.19
2023-01-19T07:16:12.557Z,99720.69
2023-01-19T07:18:15.811Z,99739.25
2023-01-19T07:20:20.784Z,99728.25
2023-01-19T07:22:24.120Z,99739.41
2023-01-19T07:24:27.469Z,99733.09
2023-01-19T07:26:30.952Z,99733.09
2023-01-19T07:28:34.371Z,99738.78
2023-01-19T07:30:37.809Z,99750.41
2023-01-19T07:32:42.541Z,99736.97
2023-01-19T07:34:45.859Z,99753.28
2023-01-19T07:36:50.679Z,99750.31
2023-01-19T07:38:53.986Z,99724.66
2023-01-19T07:41:02.067Z,99751.94
2023-01-19T07:43:05.438Z,99745.56
2023-01-19T07:45:09.979Z,99755.22
2023-01-19T07:47:14.145Z,99752.19
2023-01-19T07:49:17.676Z,99757.44
2023-01-19T07:51:20.989Z,99756.34
2023-01-19T07:53:25.769Z,99767.56
2023-01-19T07:55:29.419Z,99751.63
2023-01-19T07:57:32.785Z,99765.22
2023-01-19T07:59:36.126Z,99764.22
2023-01-19T08:01:40.475Z,99775.28
2023-01-19T08:03:43.869Z,99782.66
2023-01-19T08:05:51.563Z,99783.72
2023-01-19T08:07:56.263Z,99778.50
2023-01-19T08:10:00.974Z,99788.28
2023-01-19T08:12:04.925Z,99791.63
2023-01-19T08:14:08.693Z,99782.75
2023-01-19T08:16:12.075Z,99789.63
2023-01-19T08:18:15.660Z,99794.34
2023-01-19T08:20:19.121Z,99801.41
2023-01-19T08:22:22.503Z,99806.22
2023-01-19T08:24:28.541Z,99805.69
2023-01-19T08:26:35.272Z,99810.19
2023-01-19T08:28:38.702Z,99811.63
2023-01-19T08:30:44.509Z,99816.22
2023-01-19T08:32:47.907Z,99823.94
2023-01-19T08:34:51.314Z,99827.91
2023-01-19T08:36:54.758Z,99829.59
2023-01-19T08:38:58.161Z,99841.59
2023-01-19T08:41:01.476Z,99841.25
2023-01-19T08:43:08.227Z,99835.47
2023-01-19T08:45:12.130Z,99838.56
2023-01-19T08:47:17.175Z,99838.44
2023-01-19T08:49:20.636Z,99831.81
2023-01-19T08:51:24.110Z,99826.28
2023-01-19T08:53:27.464Z,99838.66
2023-01-19T08:55:31.477Z,99843.13
2023-01-19T08:57:34.796Z,99842.53
2023-01-19T08:59:39.527Z,99845.69
2023-01-19T09:01:42.993Z,99843.81
2023-01-19T09:03:46.806Z,99853.19
2023-01-19T09:05:50.912Z,99848.75
2023-01-19T09:07:54.241Z,99840.25
2023-01-19T09:09:57.824Z,99762.59
2023-01-19T09:12:01.125Z,99848.91
2023-01-19T09:14:05.612Z,99844.13
2023-01-19T09:16:12.611Z,99865.34
2023-01-19T09:18:19.821Z,99856.09
2023-01-19T09:20:23.455Z,99865.56
2023-01-19T09:22:26.812Z,99866.00
2023-01-19T09:24:30.098Z,99877.56
2023-01-19T09:26:33.390Z,99865.03
2023-01-19T09:28:38.148Z,99869.66
2023-01-19T09:30:42.977Z,99874.84
2023-01-19T09:32:47.617Z,99876.47
2023-01-19T09:34:51.150Z,99889.16
2023-01-19T09:36:54.648Z,99876.25
2023-01-19T09:38:57.996Z,99881.91
2023-01-19T09:41:02.140Z,99887.13
2023-01-19T09:43:14.620Z,99877.00
2023-01-19T09:45:23.838Z,99851.78
2023-01-19T09:47:30.721Z,99880.25
2023-01-19T09:49:42.203Z,99885.66
2023-01-19T09:51:48.143Z,99879.34
2023-01-19T09:53:57.332Z,99891.34
2023-01-19T09:56:01.013Z,99858.50
2023-01-19T09:58:10.865Z,99895.31
2023-01-19T10:00:16.403Z,99898.34
2023-01-19T10:02:29.255Z,99894.50
2023-01-19T10:04:39.820Z,99897.75
2023-01-19T10:06:43.433Z,99911.09
2023-01-19T10:09:00.033Z,99919.84
2023-01-19T10:11:03.397Z,99887.69
2023-01-19T10:13:26.590Z,99910.91
2023-01-19T10:15:40.586Z,99904.94
2023-01-19T10:17:53.583Z,99916.59
2023-01-19T10:19:59.531Z,99922.78
2023-01-19T10:22:13.141Z,99913.69
2023-01-19T10:24:22.339Z,99917.97
2023-01-19T10:26:27.058Z,99917.56
2023-01-19T10:28:31.082Z,99930.00
2023-01-19T10:30:36.070Z,99927.72
2023-01-19T10:32:40.193Z,99924.66
2023-01-19T10:34:43.972Z,99919.97
2023-01-19T10:36:52.762Z,99891.13
2023-01-19T10:38:56.171Z,99926.72
2023-01-19T10:41:04.968Z,99930.16
2023-01-19T10:43:38.080Z,99927.31
2023-01-19T10:45:41.595Z,99932.88
2023-01-19T10:47:47.057Z,99933.16
2023-01-19T10:49:50.653Z,99932.38
2023-01-19T10:51:56.502Z,99928.75
2023-01-19T10:54:02.404Z,99933.06
2023-01-19T10:56:17.677Z,99926.03
2023-01-19T10:58:30.100Z,99917.81
2023-01-19T11:00:37.572Z,99925.03
2023-01-19T11:02:51.360Z,99918.66
2023-01-19T11:04:56.888Z,99932.38
2023-01-19T11:07:15.563Z,99939.47
2023-01-19T11:09:20.630Z,99945.53
2023-01-19T11:11:25.367Z,99938.41
2023-01-19T11:13:28.983Z,99874.44
2023-01-19T11:15:35.729Z,99951.59
2023-01-19T11:17:48.157Z,99946.31
2023-01-19T11:19:57.461Z,99954.66
2023-01-19T11:22:21.609Z,99949.91
2023-01-19T11:24:25.165Z,99951.13
2023-01-19T11:26:31.264Z,99943.56
2023-01-19T11:28:37.435Z,99942.66
2023-01-19T11:30:55.555Z,99961.59
2023-01-19T11:33:00.715Z,99956.31
2023-01-19T11:35:19.449Z,99947.84
2023-01-19T11:37:34.461Z,99941.31
2023-01-19T11:39:48.962Z,99933.78
2023-01-19T11:41:56.200Z,99925.84
2023-01-19T11:44:03.831Z,99936.66
2023-01-19T11:46:07.324Z,99932.28
2023-01-19T11:48:21.687Z,99945.03
2023-01-19T11:50:30.247Z,99947.75
2023-01-19T11:52:42.899Z,99945.56
2023-01-19T11:54:50.569Z,99926.59
2023-01-19T11:56:56.637Z,99933.06
2023-01-19T11:58:59.959Z,99934.72
2023-01-19T12:01:08.174Z,99939.19
2023-01-19T12:03:19.168Z,99948.75
2023-01-19T12:05:24.504Z,99942.81
2023-01-19T12:07:32.039Z,99930.06
2023-01-19T12:09:42.844Z,99940.22
2023-01-19T12:11:51.894Z,99937.66
2023-01-19T12:13:55.644Z,99926.66
2023-01-19T12:16:02.349Z,99932.63
2023-01-19T12:18:08.529Z,99925.31
2023-01-19T12:20:25.759Z,99950.28
2023-01-19T12:22:36.592Z,99947.06
2023-01-19T12:24:47.384Z,99945.91
2023-01-19T12:26:54.984Z,99938.03
2023-01-19T12:29:04.184Z,99954.63
2023-01-19T12:31:08.326Z,99944.34
2023-01-19T12:33:37.446Z,99947.59
2023-01-19T12:35:59.504Z,99952.13
2023-01-19T12:38:22.975Z,99936.63
2023-01-19T12:40:31.259Z,99946.91
2023-01-19T12:42:35.125Z,99948.19
2023-01-19T12:44:38.652Z,99953.78
2023-01-19T12:46:43.618Z,99942.97
2023-01-19T12:48:47.092Z,99954.25
2023-01-19T12:50:50.555Z,99959.16
2023-01-19T12:52:57.385Z,99950.72
2023-01-19T12:55:07.474Z,99949.00
2023-01-19T12:57:22.061Z,99950.84
2023-01-19T12:59:27.422Z,99953.06
2023-01-19T13:01:31.179Z,99944.34
2023-01-19T13:03:59.260Z,99945.53
2023-01-19T13:06:02.635Z,99840.22
2023-01-19T13:08:25.716Z,99953.78
2023-01-19T13:11:22.488Z,99956.72
2023-01-19T13:13:29.895Z,99962.88
2023-01-19T13:15:36.497Z,99950.91
2023-01-19T13:17:50.836Z,99952.19
2023-01-19T13:20:02.987Z,99953.59
2023-01-19T13:22:43.730Z,99960.94
2023-01-19T13:25:06.906Z,99960.34
2023-01-19T13:27:14.065Z,99952.91
2023-01-19T13:29:26.070Z,99954.91
2023-01-19T13:31:35.723Z,99962.94
2023-01-19T13:33:46.375Z,99971.03
2023-01-19T13:35:55.549Z,99966.31
2023-01-19T13:38:01.548Z,99965.47
2023-01-19T13:40:05.987Z,99964.31
2023-01-19T13:42:16.612Z,99961.06
2023-01-19T13:44:24.877Z,99964.75
2023-01-19T13:46:29.762Z,99966.00
2023-01-19T13:48:33.962Z,99936.38
2023-01-19T13:50:38.629Z,99963.72
2023-01-19T13:52:44.553Z,99972.84
2023-01-19T13:54:53.210Z,99972.22
2023-01-19T13:56:56.747Z,99983.69
2023-01-19T13:59:11.678Z,99982.78
2023-01-19T14:01:24.954Z,99979.91
2023-01-19T14:03:29.639Z,99985.78
2023-01-19T14:05:34.787Z,99980.34
2023-01-19T14:07:38.105Z,99982.00
2023-01-19T14:09:41.499Z,99974.38
2023-01-19T14:11:47.032Z,99982.75
2023-01-19T14:13:50.927Z,99982.34
2023-01-19T14:15:57.319Z,99986.94
2023-01-19T14:18:27.698Z,99997.75
2023-01-19T14:20:36.690Z,99963.84
2023-01-19T14:22:42.366Z,99996.69
2023-01-19T14:24:45.773Z,99993.47
2023-01-19T14:26:51.244Z,99999.53
2023-01-19T14:28:55.528Z,100003.56
2023-01-19T14:31:00.740Z,99977.69
2023-01-19T14:33:04.282Z,99998.00
2023-01-19T14:35:24.983Z,100001.34
2023-01-19T14:37:30.403Z,100007.28
2023-01-19T14:39:36.151Z,100003.13
2023-01-19T14:41:47.894Z,100007.06
2023-01-19T14:43:51.493Z,100002.97
2023-01-19T14:45:55.766Z,100012.53
2023-01-19T14:48:02.119Z,100008.53
2023-01-19T14:50:22.213Z,100012.75
2023-01-19T14:52:29.525Z,100018.97
2023-01-19T14:54:36.832Z,99929.78
2023-01-19T14:56:40.160Z,100020.84
2023-01-19T14:58:43.443Z,100024.84
2023-01-19T15:00:48.066Z,100017.56
2023-01-19T15:02:51.474Z,100027.47
2023-01-19T15:04:55.393Z,100037.78
2023-01-19T15:07:00.212Z,100039.69
2023-01-19T15:09:04.165Z,100034.91
2023-01-19T15:11:11.904Z,100043.19
2023-01-19T15:13:19.933Z,100047.47
2023-01-19T15:15:31.155Z,100047.47
2023-01-19T15:17:35.164Z,100041.38
2023-01-19T15:19:38.498Z,100040.44
2023-01-19T15:21:42.341Z,100046.94
2023-01-19T15:23:48.458Z,100038.28
2023-01-19T15:25:53.378Z,100010.19
2023-01-19T15:27:59.664Z,100043.84
2023-01-19T15:30:02.979Z,100038.72
2023-01-19T15:32:07.285Z,100037.00
2023-01-19T15:34:13.185Z,100045.19
2023-01-19T15:36:19.119Z,100039.34
2023-01-19T15:38:22.441Z,100041.19
2023-01-19T15:40:27.373Z,100044.09
2023-01-19T15:42:30.711Z,100037.59
2023-01-19T15:44:34.103Z,100049.88
2023-01-19T15:46:38.217Z,100046.94
2023-01-19T15:48:41.665Z,100041.41
2023-01-19T15:50:46.033Z,100043.44
2023-01-19T15:52:49.454Z,100049.03
2023-01-19T15:54:52.778Z,100054.50
2023-01-19T15:56:57.470Z,100047.69
2023-01-19T15:59:02.505Z,100049.38
2023-01-19T16:01:06.150Z,100030.06
2023-01-19T16:03:09.580Z,100047.16
2023-01-19T16:05:13.326Z,100055.28
2023-01-19T16:07:16.811Z,100060.63
2023-01-19T16:09:20.217Z,100054.81
2023-01-19T16:11:23.616Z,100066.56
2023-01-19T16:13:29.961Z,100081.25
2023-01-19T16:15:35.926Z,100060.09
2023-01-19T16:17:39.264Z,100061.94
2023-01-19T16:19:42.590Z,100073.69
2023-01-19T16:21:45.996Z,100071.97
2023-01-19T16:23:49.380Z,100076.28
2023-01-19T16:26:00.801Z,100082.50
2023-01-19T16:28:04.137Z,100079.03
2023-01-19T16:30:12.419Z,100054.56
2023-01-19T16:32:17.024Z,100071.44
2023-01-19T16:34:20.373Z,100090.72
2023-01-19T16:36:27.795Z,100094.66
2023-01-19T16:38:31.128Z,100086.66
2023-01-19T16:40:34.477Z,100078.69
2023-01-19T16:42:39.090Z,100095.41
2023-01-19T16:44:42.392Z,100093.34
2023-01-19T16:46:49.650Z,100092.06
2023-01-19T16:48:53.729Z,100095.94
2023-01-19T16:51:02.363Z,100096.06
2023-01-19T16:53:05.705Z,100100.06
2023-01-19T16:55:11.219Z,100089.97
2023-01-19T16:57:14.939Z,100090.09
2023-01-19T16:59:19.318Z,100099.88
2023-01-19T17:01:23.581Z,100097.44
2023-01-19T17:03:28.348Z,100101.88
2023-01-19T17:05:31.768Z,100107.25
2023-01-19T17:07:35.115Z,100105.69
2023-01-19T17:09:38.656Z,100115.94
2023-01-19T17:11:42.318Z,100091.59
2023-01-19T17:13:45.732Z,100108.97
2023-01-19T17:15:49.199Z,100109.84
2023-01-19T17:17:52.559Z,100103.34
2023-01-19T17:19:57.607Z,100115.09
2023-01-19T17:22:00.919Z,100115.22
2023-01-19T17:24:05.173Z,100118.75
2023-01-19T17:26:08.694Z,100123.75
2023-01-19T17:28:12.142Z,100108.97
2023-01-19T17:30:15.938Z,100116.69
2023-01-19T17:32:19.350Z,100123.22
2023-01-19T17:34:22.688Z,100121.72
2023-01-19T17:36:29.076Z,100123.13
2023-01-19T17:38:32.388Z,100134.81
2023-01-19T17:40:35.792Z,100105.81
2023-01-19T17:42:40.940Z,100131.75
2023-01-19T17:44:44.204Z,100139.91
2023-01-19T17:46:48.530Z,100139.44
2023-01-19T17:48:53.201Z,100142.84
2023-01-19T17:51:02.696Z,100129.97
2023-01-19T17:53:07.498Z,100148.50
2023-01-19T17:55:11.408Z,100135.78
2023-01-19T17:57:14.871Z,100144.84
2023-01-19T17:59:18.187Z,100132.09
2023-01-19T18:01:24.005Z,100132.63
2023-01-19T18:03:27.313Z,100140.72
2023-01-19T18:05:30.632Z,100140.94
2023-01-19T18:07:33.974Z,100136.38
2023-01-19T18:09:38.679Z,100135.66
2023-01-19T18:11:42.728Z,100143.38
2023-01-19T18:13:48.058Z,100132.34
2023-01-19T18:15:51.700Z,100135.31
2023-01-19T18:17:55.070Z,100143.09
2023-01-19T18:19:58.494Z,100131.78
2023-01-19T18:22:02.306Z,100149.41
2023-01-19T18:24:07.005Z,100137.72
2023-01-19T18:26:14.862Z,100145.06
2023-01-19T18:28:18.204Z,100144.94
2023-01-19T18:30:22.392Z,100141.59
2023-01-19T18:32:27.190Z,100144.50
2023-01-19T18:34:30.593Z,100148.00
2023-01-19T18:36:34.240Z,100151.72
2023-01-19T18:38:38.874Z,100121.16
2023-01-19T18:40:42.200Z,100150.09
2023-01-19T18:42:47.045Z,100152.22
2023-01-19T18:44:50.337Z,100157.06
2023-01-19T18:46:56.660Z,100152.38
2023-01-19T18:49:00.243Z,100155.56
2023-01-19T18:51:07.188Z,100158.81
2023-01-19T18:53:10.593Z,100152.50
2023-01-19T18:55:14.026Z,100162.22
2023-01-19T18:57:17.794Z,100160.75
2023-01-19T18:59:22.641Z,100160.28
2023-01-19T19:01:27.592Z,100156.88
2023-01-19T19:03:31.130Z,100159.84
2023-01-19T19:05:34.520Z,100161.50
2023-01-19T19:07:38.488Z,100168.22
2023-01-19T19:09:41.906Z,100170.00
2023-01-19T19:11:45.200Z,100164.03
2023-01-19T19:13:53.202Z,100165.97
2023-01-19T19:16:03.807Z,100161.16
2023-01-19T19:18:08.888Z,100163.97
2023-01-19T19:20:13.520Z,100168.75
2023-01-19T19:22:17.129Z,100158.91
2023-01-19T19:24:20.629Z,100168.50
2023-01-19T19:26:25.119Z,100067.88
2023-01-19T19:28:28.394Z,100166.25
2023-01-19T19:30:34.267Z,100164.47
2023-01-19T19:32:39.337Z,100165.47
2023-01-19T19:34:42.988Z,100163.81
2023-01-19T19:36:46.367Z,100174.41
2023-01-19T19:38:50.548Z,100173.00
2023-01-19T19:40:54.507Z,100179.66
2023-01-19T19:42:58.902Z,100177.41
2023-01-19T19:45:02.434Z,100166.69
2023-01-19T19:47:06.006Z,100176.25
2023-01-19T19:49:10.853Z,100175.81
2023-01-19T19:51:19.085Z,100173.25
2023-01-19T19:53:23.723Z,100183.91
2023-01-19T19:55:27.072Z,100184.81
2023-01-19T19:57:30.444Z,100175.97
2023-01-19T19:59:33.925Z,100185.38
2023-01-19T20:01:37.445Z,100184.34
2023-01-19T20:03:41.120Z,100190.53
2023-01-19T20:05:46.127Z,100184.91
2023-01-19T20:07:49.489Z,100192.50
2023-01-19T20:09:53.505Z,100190.72
2023-01-19T20:11:57.002Z,100195.91
2023-01-19T20:14:01.652Z,100196.59
2023-01-19T20:16:07.289Z,100191.50
2023-01-19T20:18:10.737Z,100200.34
2023-01-19T20:20:14.603Z,100207.66
2023-01-19T20:22:19.474Z,100212.63
2023-01-19T20:24:22.786Z,100208.91
2023-01-19T20:26:28.486Z,100214.06
2023-01-19T20:28:31.946Z,100217.00
2023-01-19T20:30:35.367Z,100199.75
2023-01-19T20:32:40.314Z,100210.16
2023-01-19T20:34:43.807Z,100221.91
2023-01-19T20:36:49.784Z,100219.34
2023-01-19T20:38:55.653Z,100220.59
2023-01-19T20:40:59.276Z,100212.50
2023-01-19T20:43:02.656Z,100215.38
2023-01-19T20:45:06.570Z,100235.53
2023-01-19T20:47:10.881Z,100125.44
2023-01-19T20:49:14.430Z,100231.34
2023-01-19T20:51:18.759Z,100229.72
2023-01-19T20:53:22.339Z,100230.50
2023-01-19T20:55:27.081Z,100242.56
2023-01-19T20:57:30.487Z,100234.72
2023-01-19T20:59:36.804Z,100243.22
2023-01-19T21:01:41.040Z,100247.47
2023-01-19T21:03:44.720Z,100238.84
2023-01-19T21:05:48.368Z,100217.06
2023-01-19T21:07:51.898Z,100247.97
2023-01-19T21:09:55.307Z,100255.72
2023-01-19T21:12:00.110Z,100252.09
2023-01-19T21:14:03.508Z,100264.25
2023-01-19T21:16:07.816Z,100264.03
2023-01-19T21:18:11.284Z,100265.72
2023-01-19T21:20:15.121Z,100266.47
2023-01-19T21:22:18.510Z,100268.06
2023-01-19T21:24:21.893Z,100273.56
2023-01-19T21:26:25.251Z,100278.50
2023-01-19T21:28:29.927Z,100281.19
2023-01-19T21:30:33.430Z,100282.44
2023-01-19T21:32:36.955Z,100286.50
2023-01-19T21:34:40.514Z,100285.69
2023-01-19T21:36:44.618Z,100188.88
2023-01-19T21:38:48.129Z,100287.59
2023-01-19T21:40:51.604Z,100284.66
2023-01-19T21:42:55.054Z,100297.53
2023-01-19T21:44:59.740Z,100298.22
2023-01-19T21:47:03.040Z,100303.94
2023-01-19T21:49:08.611Z,100303.31
2023-01-19T21:51:11.931Z,100277.19
2023-01-19T21:53:15.526Z,100262.16
2023-01-19T21:55:19.009Z,100319.16
2023-01-19T21:57:22.337Z,100311.97
2023-01-19T21:59:25.977Z,100319.28
2023-01-19T22:01:31.412Z,100223.72
2023-01-19T22:03:34.804Z,100315.03
2023-01-19T22:05:38.281Z,100322.94
2023-01-19T22:07:41.576Z,100327.06
2023-01-19T22:09:44.841Z,100333.53
2023-01-19T22:11:48.162Z,100335.75
2023-01-19T22:13:51.849Z,100337.94
2023-01-19T22:16:00.673Z,100332.22
2023-01-19T22:18:05.385Z,100341.09
2023-01-19T22:20:10.317Z,100350.34
2023-01-19T22:22:14.877Z,100348.25
2023-01-19T22:24:18.244Z,100338.09
2023-01-19T22:26:22.190Z,100349.34
2023-01-19T22:28:25.456Z,100340.56
2023-01-19T22:30:28.946Z,100350.88
2023-01-19T22:32:32.752Z,100355.38
2023-01-19T22:34:37.547Z,100359.22
2023-01-19T22:36:40.953Z,100357.78
2023-01-19T22:38:45.514Z,100329.78
2023-01-19T22:40:48.928Z,100358.00
2023-01-19T22:42:52.274Z,100359.78
2023-01-19T22:44:55.550Z,100360.66
2023-01-19T22:46:58.844Z,100362.59
2023-01-19T22:49:02.800Z,100354.88
2023-01-19T22:51:07.660Z,100353.19
2023-01-19T22:53:10.948Z,100356.47
2023-01-19T22:55:14.496Z,100366.88
2023-01-19T22:57:18.057Z,100360.19
2023-01-19T22:59:21.398Z,100362.00
2023-01-19T23:01:26.658Z,100342.16
2023-01-19T23:03:30.359Z,100355.91
2023-01-19T23:05:36.638Z,100365.53
2023-01-19T23:07:41.310Z,100369.00
2023-01-19T23:09:45.449Z,100360.97
2023-01-19T23:11:50.623Z,100364.72
2023-01-19T23:13:54.393Z,100365.41
2023-01-19T23:15:58.705Z,100376.22
2023-01-19T23:18:02.151Z,100371.91
2023-01-19T23:20:06.566Z,100373.44
2023-01-19T23:22:09.883Z,100377.66
2023-01-19T23:24:14.562Z,100382.91
2023-01-19T23:26:19.714Z,100387.00
2023-01-19T23:28:22.992Z,100382.81
2023-01-19T23:30:26.390Z,100382.91
2023-01-19T23:32:29.761Z,100382.75
2023-01-19T23:34:33.045Z,100379.28
2023-01-19T23:36:38.565Z,100385.88
2023-01-19T23:38:42.619Z,100387.66
2023-01-19T23:40:47.342Z,100391.91
2023-01-19T23:42:50.648Z,100393.53
2023-01-19T23:44:53.992Z,100397.63
2023-01-19T23:46:58.044Z,100399.72
2023-01-19T23:49:01.721Z,100397.31
2023-01-19T23:51:07.359Z,100407.03
2023-01-19T23:53:10.661Z,100403.00
2023-01-19T23:55:14.295Z,100397.78
2023-01-19T23:57:19.088Z,100404.06
2023-01-19T23:59:22.379Z,100402.53
